createdAt,value
2023-04-30T00:00:10.926Z,3.30
2023-04-30T00:05:12.408Z,3.08
2023-04-30T00:10:13.878Z,3.17
2023-04-30T00:15:15.344Z,3.78
2023-04-30T00:20:17.240Z,3.20
2023-04-30T00:25:18.697Z,2.95
2023-04-30T00:30:20.537Z,2.90
2023-04-30T00:35:21.885Z,3.20
2023-04-30T00:40:23.301Z,3.10
2023-04-30T00:45:24.699Z,3.08
2023-04-30T00:50:26.231Z,2.78
2023-04-30T00:55:27.615Z,2.90
2023-04-30T01:00:29.981Z,3.03
2023-04-30T01:05:31.433Z,2.72
2023-04-30T01:10:46.259Z,3.08
2023-04-30T01:15:50.480Z,3.15
2023-04-30T01:21:10.002Z,3.00
2023-04-30T01:26:13.998Z,3.43
2023-04-30T01:31:16.601Z,3.10
2023-04-30T01:36:37.045Z,3.22
2023-04-30T01:41:50.926Z,3.35
2023-04-30T01:47:18.407Z,2.53
2023-04-30T01:52:40.981Z,2.85
2023-04-30T01:57:47.019Z,3.10
2023-04-30T02:02:48.576Z,3.20
2023-04-30T02:07:50.994Z,2.83
2023-04-30T02:12:52.744Z,2.70
2023-04-30T02:17:54.375Z,3.05
2023-04-30T02:22:56.470Z,3.38
2023-04-30T02:27:57.961Z,2.72
2023-04-30T02:32:59.398Z,2.90
2023-04-30T02:38:00.736Z,2.72
2023-04-30T02:43:02.177Z,3.33
2023-04-30T02:48:03.600Z,3.10
2023-04-30T02:53:05.053Z,2.50
2023-04-30T02:58:06.584Z,3.40
2023-04-30T03:03:08.222Z,3.33
2023-04-30T03:08:09.717Z,2.88
2023-04-30T03:13:11.087Z,3.30
2023-04-30T03:18:12.626Z,3.45
2023-04-30T03:23:14.068Z,3.13
2023-04-30T03:28:15.824Z,3.05
2023-04-30T03:33:17.223Z,3.50
2023-04-30T03:38:18.635Z,3.40
2023-04-30T03:43:20.190Z,3.40
2023-04-30T03:48:21.638Z,3.38
2023-04-30T03:53:23.057Z,3.03
2023-04-30T03:58:24.591Z,3.53
2023-04-30T04:03:26.046Z,4.00
2023-04-30T04:08:27.406Z,3.33
2023-04-30T04:13:28.798Z,3.38
2023-04-30T04:18:30.207Z,3.40
2023-04-30T04:23:31.575Z,4.10
2023-04-30T04:28:32.979Z,2.85
2023-04-30T04:33:35.096Z,3.00
2023-04-30T04:38:36.560Z,3.28
2023-04-30T04:43:38.467Z,3.47
2023-04-30T04:48:39.929Z,3.80
2023-04-30T04:53:41.314Z,3.70
2023-04-30T04:58:42.872Z,3.53
2023-04-30T05:03:44.383Z,3.40
2023-04-30T05:08:46.045Z,3.10
2023-04-30T05:13:47.599Z,3.20
2023-04-30T05:18:49.025Z,3.08
2023-04-30T05:23:50.524Z,3.30
2023-04-30T05:28:52.580Z,3.13
2023-04-30T05:33:53.971Z,2.92
2023-04-30T05:38:55.457Z,2.88
2023-04-30T05:43:56.859Z,2.90
2023-04-30T05:48:58.322Z,3.30
2023-04-30T05:54:00.461Z,3.22
2023-04-30T05:59:01.950Z,3.53
2023-04-30T06:04:04.952Z,3.50
2023-04-30T06:09:06.534Z,3.17
2023-04-30T06:14:07.971Z,3.40
2023-04-30T06:19:09.380Z,3.80
2023-04-30T06:24:10.857Z,3.78
2023-04-30T06:29:12.254Z,3.50
2023-04-30T06:34:13.711Z,3.45
2023-04-30T06:39:16.095Z,4.68
2023-04-30T06:44:18.036Z,3.20
2023-04-30T06:49:19.468Z,3.92
2023-04-30T06:54:23.722Z,3.95
2023-04-30T06:59:25.217Z,3.42
2023-04-30T07:04:27.961Z,3.03
2023-04-30T07:09:29.462Z,3.15
2023-04-30T07:14:31.146Z,3.38
2023-04-30T07:19:32.717Z,3.17
2023-04-30T07:24:34.212Z,3.70
2023-04-30T07:29:35.723Z,3.17
2023-04-30T07:34:37.217Z,3.33
2023-04-30T07:39:38.656Z,3.33
2023-04-30T07:44:41.176Z,4.28
2023-04-30T07:49:42.641Z,4.05
2023-04-30T07:54:44.345Z,3.65
2023-04-30T07:59:45.857Z,4.40
2023-04-30T08:04:47.348Z,3.70
2023-04-30T08:09:48.730Z,3.90
2023-04-30T08:14:50.109Z,3.22
2023-04-30T08:19:52.495Z,3.05
2023-04-30T08:24:55.754Z,2.95
2023-04-30T08:29:57.313Z,2.63
2023-04-30T08:34:58.869Z,3.55
2023-04-30T08:40:00.626Z,2.80
2023-04-30T08:45:03.600Z,3.22
2023-04-30T08:50:06.030Z,4.35
2023-04-30T08:55:08.767Z,3.60
2023-04-30T09:00:10.458Z,3.47
2023-04-30T09:05:13.151Z,4.38
2023-04-30T09:10:16.848Z,3.28
2023-04-30T09:15:18.780Z,3.47
2023-04-30T09:20:20.901Z,3.53
2023-04-30T09:25:37.874Z,3.30
2023-04-30T09:30:40.053Z,3.60
2023-04-30T09:35:44.188Z,3.10
2023-04-30T09:40:46.013Z,3.55
2023-04-30T09:45:49.020Z,3.42
2023-04-30T09:50:51.226Z,2.95
2023-04-30T09:55:52.788Z,2.80
2023-04-30T10:00:54.661Z,2.70
2023-04-30T10:05:56.443Z,2.65
2023-04-30T10:11:05.628Z,2.38
2023-04-30T10:16:08.700Z,2.97
2023-04-30T10:21:12.779Z,3.17
2023-04-30T10:26:16.327Z,2.85
2023-04-30T10:31:19.318Z,3.05
2023-04-30T10:36:39.417Z,2.78
2023-04-30T10:41:44.589Z,2.10
2023-04-30T10:46:46.344Z,2.10
2023-04-30T10:51:58.642Z,2.92
2023-04-30T10:57:11.544Z,2.55
2023-04-30T11:02:15.318Z,2.30
2023-04-30T11:07:16.710Z,2.42
2023-04-30T11:12:28.634Z,2.22
2023-04-30T11:17:32.227Z,2.38
2023-04-30T11:22:36.468Z,1.90
2023-04-30T11:27:38.556Z,2.20
2023-04-30T11:32:40.310Z,2.00
2023-04-30T11:37:45.635Z,1.90
2023-04-30T11:42:48.374Z,1.80
2023-04-30T11:47:51.962Z,2.45
2023-04-30T11:52:53.832Z,1.98
2023-04-30T11:57:56.298Z,2.22
2023-04-30T12:03:00.061Z,2.03
2023-04-30T12:08:04.849Z,1.90
2023-04-30T12:13:06.419Z,2.20
2023-04-30T12:18:13.381Z,1.92
2023-04-30T12:23:14.974Z,1.67
2023-04-30T12:28:16.459Z,1.95
2023-04-30T12:33:18.354Z,2.33
2023-04-30T12:38:21.406Z,2.10
2023-04-30T12:43:22.799Z,2.00
2023-04-30T12:48:24.899Z,1.95
2023-04-30T12:53:26.395Z,1.98
2023-04-30T12:58:31.099Z,1.80
2023-04-30T13:03:32.801Z,2.20
2023-04-30T13:08:42.625Z,2.00
2023-04-30T13:13:51.938Z,2.22
2023-04-30T13:18:53.614Z,2.13
2023-04-30T13:23:56.651Z,2.20
2023-04-30T13:28:59.178Z,2.97
2023-04-30T13:34:00.908Z,3.00
2023-04-30T13:39:02.460Z,2.38
2023-04-30T13:44:03.938Z,2.97
2023-04-30T13:49:05.784Z,2.70
2023-04-30T13:54:07.479Z,3.10
2023-04-30T13:59:09.683Z,2.70
2023-04-30T14:04:11.198Z,3.40
2023-04-30T14:09:12.638Z,2.70
2023-04-30T14:14:14.188Z,3.05
2023-04-30T14:19:16.251Z,2.80
2023-04-30T14:24:18.117Z,2.70
2023-04-30T14:29:21.553Z,6.70
2023-04-30T14:34:24.548Z,7.68
2023-04-30T14:39:26.473Z,14.32
2023-04-30T14:44:27.913Z,3.90
2023-04-30T14:49:29.462Z,5.35
2023-04-30T14:54:30.907Z,4.20
2023-04-30T14:59:33.572Z,3.90
2023-04-30T15:04:35.004Z,20.65
2023-04-30T15:09:36.395Z,18.85
2023-04-30T15:14:37.798Z,17.80
2023-04-30T15:19:39.550Z,32.78
2023-04-30T15:24:41.118Z,7.57
2023-04-30T15:29:42.661Z,10.43
2023-04-30T15:34:44.062Z,5.22
2023-04-30T15:39:46.021Z,5.95
2023-04-30T15:44:52.364Z,4.57
2023-04-30T15:49:53.964Z,4.53
2023-04-30T15:54:55.544Z,4.35
2023-04-30T15:59:57.318Z,2.80
2023-04-30T16:04:59.064Z,3.00
2023-04-30T16:10:00.980Z,2.83
2023-04-30T16:15:04.739Z,2.42
2023-04-30T16:20:06.921Z,2.63
2023-04-30T16:25:10.048Z,2.45
2023-04-30T16:30:11.699Z,2.42
2023-04-30T16:35:13.326Z,2.30
2023-04-30T16:40:14.742Z,18.02
2023-04-30T16:45:17.229Z,22.25
2023-04-30T16:50:18.677Z,5.63
2023-04-30T16:55:20.107Z,4.97
2023-04-30T17:00:21.933Z,4.32
2023-04-30T17:05:23.577Z,3.40
2023-04-30T17:10:25.596Z,3.47
2023-04-30T17:15:27.028Z,3.70
2023-04-30T17:20:28.478Z,2.80
2023-04-30T17:25:31.821Z,2.72
2023-04-30T17:30:33.561Z,2.60
2023-04-30T17:35:34.976Z,3.05
2023-04-30T17:40:36.687Z,2.35
2023-04-30T17:45:38.190Z,2.38
2023-04-30T17:50:39.635Z,2.35
2023-04-30T17:55:41.566Z,2.70
2023-04-30T18:00:43.538Z,2.42
2023-04-30T18:05:45.494Z,2.00
2023-04-30T18:10:47.623Z,2.28
2023-04-30T18:15:49.017Z,2.50
2023-04-30T18:20:51.157Z,2.45
2023-04-30T18:25:52.641Z,2.00
2023-04-30T18:30:54.689Z,2.05
2023-04-30T18:35:57.266Z,2.28
2023-04-30T18:40:58.713Z,2.20
2023-04-30T18:46:00.746Z,2.45
2023-04-30T18:51:02.275Z,2.45
2023-04-30T18:56:03.744Z,2.58
2023-04-30T19:01:05.278Z,2.50
2023-04-30T19:06:07.475Z,2.53
2023-04-30T19:11:09.036Z,2.50
2023-04-30T19:16:11.099Z,2.03
2023-04-30T19:21:14.858Z,2.72
2023-04-30T19:26:16.287Z,2.65
2023-04-30T19:31:17.743Z,2.50
2023-04-30T19:36:19.309Z,2.40
2023-04-30T19:41:21.616Z,2.90
2023-04-30T19:46:23.200Z,2.28
2023-04-30T19:51:24.760Z,2.67
2023-04-30T19:56:26.287Z,7.22
2023-04-30T20:01:28.694Z,2.97
2023-04-30T20:06:30.334Z,2.95
2023-04-30T20:11:33.084Z,2.63
2023-04-30T20:16:34.665Z,2.90
2023-04-30T20:21:36.169Z,2.85
2023-04-30T20:26:37.729Z,2.92
2023-04-30T20:31:39.228Z,3.63
2023-04-30T20:36:40.670Z,4.03
2023-04-30T20:41:42.153Z,4.40
2023-04-30T20:46:43.603Z,3.40
2023-04-30T20:51:45.051Z,3.72
2023-04-30T20:56:47.314Z,2.97
2023-04-30T21:01:48.756Z,5.20
2023-04-30T21:06:51.160Z,4.15
2023-04-30T21:11:53.280Z,2.95
2023-04-30T21:16:54.739Z,2.33
2023-04-30T21:21:57.264Z,2.15
2023-04-30T21:27:00.025Z,2.15
2023-04-30T21:32:01.665Z,1.88
2023-04-30T21:37:03.501Z,2.10
2023-04-30T21:42:05.034Z,1.90
2023-04-30T21:47:08.360Z,2.10
2023-04-30T21:52:09.776Z,1.70
2023-04-30T21:57:11.247Z,1.98
2023-04-30T22:02:22.850Z,1.95
2023-04-30T22:07:25.465Z,1.75
2023-04-30T22:12:26.852Z,2.08
2023-04-30T22:17:32.740Z,2.10
2023-04-30T22:22:34.242Z,2.15
2023-04-30T22:27:37.403Z,2.13
2023-04-30T22:32:39.092Z,2.35
2023-04-30T22:37:40.546Z,2.47
2023-04-30T22:42:42.686Z,1.90
2023-04-30T22:47:45.872Z,2.30
2023-04-30T22:52:48.909Z,2.30
2023-04-30T22:57:51.306Z,2.08
2023-04-30T23:02:52.765Z,2.55
2023-04-30T23:07:54.169Z,2.65
2023-04-30T23:12:56.662Z,2.55
2023-04-30T23:18:00.443Z,2.25
2023-04-30T23:23:03.232Z,2.22
2023-04-30T23:28:05.059Z,2.60
2023-04-30T23:33:06.518Z,2.60
2023-04-30T23:38:08.659Z,2.50
2023-04-30T23:43:10.677Z,2.45
2023-04-30T23:48:12.227Z,2.80
2023-04-30T23:53:15.637Z,2.53
2023-04-30T23:58:17.059Z,2.72
